sensor_id;sensor_type;location;lat;lon;timestamp;temperature;humidity
3818;DHT22;1924;48.078;11.516;2024-03-23T05:02:43;10.40;97.40
3818;DHT22;1924;48.078;11.516;2024-03-23T05:05:10;10.30;97.40
3818;DHT22;1924;48.078;11.516;2024-03-23T05:07:35;10.30;97.10
3818;DHT22;1924;48.078;11.516;2024-03-23T05:10:03;10.30;97.40
3818;DHT22;1924;48.078;11.516;2024-03-23T05:12:29;10.20;97.30
3818;DHT22;1924;48.078;11.516;2024-03-23T05:14:55;10.20;97.20
3818;DHT22;1924;48.078;11.516;2024-03-23T05:17:21;10.10;97.10
3818;DHT22;1924;48.078;11.516;2024-03-23T05:19:49;10.00;97.10
3818;DHT22;1924;48.078;11.516;2024-03-23T05:22:15;10.00;97.70
3818;DHT22;1924;48.078;11.516;2024-03-23T05:24:42;10.00;98.00
3818;DHT22;1924;48.078;11.516;2024-03-23T05:27:07;9.90;98.30
3818;DHT22;1924;48.078;11.516;2024-03-23T05:29:34;9.80;98.80
3818;DHT22;1924;48.078;11.516;2024-03-23T05:32:00;9.80;98.70
3818;DHT22;1924;48.078;11.516;2024-03-23T05:34:26;9.70;98.30
3818;DHT22;1924;48.078;11.516;2024-03-23T05:36:55;9.80;98.30
3818;DHT22;1924;48.078;11.516;2024-03-23T05:39:22;9.70;98.60
3818;DHT22;1924;48.078;11.516;2024-03-23T05:41:47;9.70;98.60
3818;DHT22;1924;48.078;11.516;2024-03-23T05:44:14;9.70;98.80
3818;DHT22;1924;48.078;11.516;2024-03-23T05:46:40;9.70;98.60
3818;DHT22;1924;48.078;11.516;2024-03-23T05:49:08;9.80;98.50
3818;DHT22;1924;48.078;11.516;2024-03-23T05:51:34;9.90;98.20
3818;DHT22;1924;48.078;11.516;2024-03-23T05:54:02;9.90;97.90
3818;DHT22;1924;48.078;11.516;2024-03-23T05:56:28;9.90;97.80
3818;DHT22;1924;48.078;11.516;2024-03-23T05:58:55;10.00;97.60
3818;DHT22;1924;48.078;11.516;2024-03-23T06:01:22;10.00;98.00
3818;DHT22;1924;48.078;11.516;2024-03-23T06:03:47;9.90;99.00
3818;DHT22;1924;48.078;11.516;2024-03-23T06:06:14;9.90;98.80
3818;DHT22;1924;48.078;11.516;2024-03-23T06:08:40;9.90;99.00
3818;DHT22;1924;48.078;11.516;2024-03-23T06:11:08;9.90;99.10
3818;DHT22;1924;48.078;11.516;2024-03-23T06:13:34;10.00;98.80
3818;DHT22;1924;48.078;11.516;2024-03-23T06:16:01;10.10;98.90
3818;DHT22;1924;48.078;11.516;2024-03-23T06:18:27;10.10;99.20
3818;DHT22;1924;48.078;11.516;2024-03-23T06:20:54;10.20;99.20
3818;DHT22;1924;48.078;11.516;2024-03-23T06:23:20;10.40;99.00
3818;DHT22;1924;48.078;11.516;2024-03-23T06:25:46;10.50;98.60
3818;DHT22;1924;48.078;11.516;2024-03-23T06:28:14;10.70;98.60
3818;DHT22;1924;48.078;11.516;2024-03-23T06:30:40;10.90;97.20
3818;DHT22;1924;48.078;11.516;2024-03-23T06:33:06;11.00;96.70
3818;DHT22;1924;48.078;11.516;2024-03-23T06:35:33;11.10;96.00
3818;DHT22;1924;48.078;11.516;2024-03-23T06:37:58;11.10;96.40
3818;DHT22;1924;48.078;11.516;2024-03-23T06:40:25;11.20;96.50
3818;DHT22;1924;48.078;11.516;2024-03-23T06:42:51;11.20;96.30
3818;DHT22;1924;48.078;11.516;2024-03-23T06:45:20;11.30;96.20
3818;DHT22;1924;48.078;11.516;2024-03-23T06:47:48;11.30;96.30
3818;DHT22;1924;48.078;11.516;2024-03-23T06:50:15;11.20;96.50
3818;DHT22;1924;48.078;11.516;2024-03-23T06:52:41;11.10;97.00
3818;DHT22;1924;48.078;11.516;2024-03-23T06:55:08;11.20;97.00
3818;DHT22;1924;48.078;11.516;2024-03-23T06:57:34;11.20;97.50
3818;DHT22;1924;48.078;11.516;2024-03-23T07:00:00;11.30;97.80
3818;DHT22;1924;48.078;11.516;2024-03-23T07:02:27;11.50;97.50
3818;DHT22;1924;48.078;11.516;2024-03-23T07:04:54;11.80;99.30
3818;DHT22;1924;48.078;11.516;2024-03-23T07:07:21;12.40;98.20
3818;DHT22;1924;48.078;11.516;2024-03-23T07:09:48;13.20;96.60
3818;DHT22;1924;48.078;11.516;2024-03-23T07:12:14;13.70;95.60
3818;DHT22;1924;48.078;11.516;2024-03-23T07:14:40;14.00;95.10
3818;DHT22;1924;48.078;11.516;2024-03-23T07:17:06;13.90;94.60
3818;DHT22;1924;48.078;11.516;2024-03-23T07:19:34;13.70;94.80
3818;DHT22;1924;48.078;11.516;2024-03-23T07:22:00;13.50;94.30
3818;DHT22;1924;48.078;11.516;2024-03-23T07:24:27;13.40;93.30
3818;DHT22;1924;48.078;11.516;2024-03-23T07:26:53;13.40;93.40
3818;DHT22;1924;48.078;11.516;2024-03-23T07:29:23;13.30;94.10
3818;DHT22;1924;48.078;11.516;2024-03-23T07:31:49;13.30;94.00
3818;DHT22;1924;48.078;11.516;2024-03-23T07:34:15;13.40;93.70
3818;DHT22;1924;48.078;11.516;2024-03-23T07:36:43;13.30;94.30
3818;DHT22;1924;48.078;11.516;2024-03-23T07:39:09;13.40;94.40
3818;DHT22;1924;48.078;11.516;2024-03-23T07:41:35;13.40;94.10
3818;DHT22;1924;48.078;11.516;2024-03-23T07:44:02;13.40;94.20
3818;DHT22;1924;48.078;11.516;2024-03-23T07:46:28;13.30;94.30
3818;DHT22;1924;48.078;11.516;2024-03-23T07:48:55;13.20;94.60
3818;DHT22;1924;48.078;11.516;2024-03-23T07:51:22;13.20;95.40
3818;DHT22;1924;48.078;11.516;2024-03-23T07:53:50;12.80;97.00
3818;DHT22;1924;48.078;11.516;2024-03-23T07:56:16;12.70;98.00
3818;DHT22;1924;48.078;11.516;2024-03-23T07:58:44;12.50;99.20
3818;DHT22;1924;48.078;11.516;2024-03-23T08:01:11;12.10;99.50
3818;DHT22;1924;48.078;11.516;2024-03-23T08:03:39;12.10;99.90
3818;DHT22;1924;48.078;11.516;2024-03-23T08:06:09;12.00;99.90
3818;DHT22;1924;48.078;11.516;2024-03-23T08:08:36;11.90;99.90
3818;DHT22;1924;48.078;11.516;2024-03-23T08:11:04;11.70;99.90
3818;DHT22;1924;48.078;11.516;2024-03-23T08:13:31;11.60;99.90
3818;DHT22;1924;48.078;11.516;2024-03-23T08:15:57;11.40;99.90
3818;DHT22;1924;48.078;11.516;2024-03-23T08:18:24;11.20;99.90
3818;DHT22;1924;48.078;11.516;2024-03-23T08:20:56;11.00;99.90
3818;DHT22;1924;48.078;11.516;2024-03-23T08:23:23;10.80;99.90
3818;DHT22;1924;48.078;11.516;2024-03-23T08:25:49;10.80;99.90
3818;DHT22;1924;48.078;11.516;2024-03-23T08:28:17;10.70;99.90
3818;DHT22;1924;48.078;11.516;2024-03-23T08:30:43;10.70;99.90
3818;DHT22;1924;48.078;11.516;2024-03-23T08:33:10;10.70;99.90
3818;DHT22;1924;48.078;11.516;2024-03-23T08:35:35;10.70;99.90
3818;DHT22;1924;48.078;11.516;2024-03-23T08:38:03;10.60;99.90
3818;DHT22;1924;48.078;11.516;2024-03-23T08:40:28;10.50;99.90
3818;DHT22;1924;48.078;11.516;2024-03-23T08:42:55;10.30;99.90
3818;DHT22;1924;48.078;11.516;2024-03-23T08:45:23;10.40;99.90
3818;DHT22;1924;48.078;11.516;2024-03-23T08:47:50;10.40;99.90
3818;DHT22;1924;48.078;11.516;2024-03-23T08:50:16;10.30;99.90
3818;DHT22;1924;48.078;11.516;2024-03-23T08:52:43;10.10;99.90
3818;DHT22;1924;48.078;11.516;2024-03-23T08:55:09;10.20;99.90
3818;DHT22;1924;48.078;11.516;2024-03-23T08:57:36;10.10;99.90
3818;DHT22;1924;48.078;11.516;2024-03-23T09:00:02;10.10;99.90
3818;DHT22;1924;48.078;11.516;2024-03-23T09:02:32;9.90;99.90
3818;DHT22;1924;48.078;11.516;2024-03-23T09:04:58;9.90;99.90
3818;DHT22;1924;48.078;11.516;2024-03-23T09:07:30;9.80;99.90
3818;DHT22;1924;48.078;11.516;2024-03-23T09:09:55;9.80;99.90
3818;DHT22;1924;48.078;11.516;2024-03-23T09:12:23;9.70;99.90
3818;DHT22;1924;48.078;11.516;2024-03-23T09:14:49;9.70;99.90
3818;DHT22;1924;48.078;11.516;2024-03-23T09:17:16;9.80;99.90
3818;DHT22;1924;48.078;11.516;2024-03-23T09:19:43;9.80;99.90
3818;DHT22;1924;48.078;11.516;2024-03-23T09:22:10;9.80;99.90
3818;DHT22;1924;48.078;11.516;2024-03-23T09:24:36;9.80;99.90
3818;DHT22;1924;48.078;11.516;2024-03-23T09:27:03;9.80;99.90
3818;DHT22;1924;48.078;11.516;2024-03-23T09:29:29;9.70;99.90
3818;DHT22;1924;48.078;11.516;2024-03-23T09:31:56;9.80;99.90
3818;DHT22;1924;48.078;11.516;2024-03-23T09:34:22;9.70;99.90
3818;DHT22;1924;48.078;11.516;2024-03-23T09:36:52;9.70;99.90
3818;DHT22;1924;48.078;11.516;2024-03-23T09:39:18;9.70;99.90
3818;DHT22;1924;48.078;11.516;2024-03-23T09:41:45;9.70;99.90
3818;DHT22;1924;48.078;11.516;2024-03-23T09:44:11;9.80;99.90
3818;DHT22;1924;48.078;11.516;2024-03-23T09:46:38;9.50;99.90
3818;DHT22;1924;48.078;11.516;2024-03-23T09:49:05;9.30;99.90
3818;DHT22;1924;48.078;11.516;2024-03-23T09:51:35;9.10;99.90
3818;DHT22;1924;48.078;11.516;2024-03-23T09:54:03;9.10;99.90
3818;DHT22;1924;48.078;11.516;2024-03-23T09:56:30;9.20;99.90
3818;DHT22;1924;48.078;11.516;2024-03-23T09:59:00;9.20;99.90
3818;DHT22;1924;48.078;11.516;2024-03-23T10:01:29;9.10;99.90
3818;DHT22;1924;48.078;11.516;2024-03-23T10:03:55;9.10;99.90
3818;DHT22;1924;48.078;11.516;2024-03-23T10:06:22;9.10;99.90
3818;DHT22;1924;48.078;11.516;2024-03-23T10:08:50;9.00;99.90
3818;DHT22;1924;48.078;11.516;2024-03-23T10:11:19;8.90;99.90
3818;DHT22;1924;48.078;11.516;2024-03-23T10:13:45;9.00;99.90
3818;DHT22;1924;48.078;11.516;2024-03-23T10:16:21;9.00;99.90
3818;DHT22;1924;48.078;11.516;2024-03-23T10:18:47;8.90;99.90
3818;DHT22;1924;48.078;11.516;2024-03-23T10:21:15;8.60;99.90
3818;DHT22;1924;48.078;11.516;2024-03-23T10:23:42;8.60;99.90
3818;DHT22;1924;48.078;11.516;2024-03-23T10:26:28;8.60;99.90
3818;DHT22;1924;48.078;11.516;2024-03-23T10:28:55;8.60;99.90
3818;DHT22;1924;48.078;11.516;2024-03-23T10:31:26;8.70;99.90
3818;DHT22;1924;48.078;11.516;2024-03-23T10:33:52;8.80;99.90
3818;DHT22;1924;48.078;11.516;2024-03-23T10:36:20;8.90;99.90
3818;DHT22;1924;48.078;11.516;2024-03-23T10:38:46;8.70;99.90
3818;DHT22;1924;48.078;11.516;2024-03-23T10:41:14;8.70;99.90
3818;DHT22;1924;48.078;11.516;2024-03-23T10:43:43;8.80;99.90
3818;DHT22;1924;48.078;11.516;2024-03-23T10:46:11;8.80;99.90
3818;DHT22;1924;48.078;11.516;2024-03-23T10:48:36;8.80;99.90
3818;DHT22;1924;48.078;11.516;2024-03-23T10:51:04;8.80;99.90
3818;DHT22;1924;48.078;11.516;2024-03-23T10:53:33;8.80;99.90
3818;DHT22;1924;48.078;11.516;2024-03-23T10:56:00;8.60;99.90
3818;DHT22;1924;48.078;11.516;2024-03-23T10:58:31;8.40;99.90
3818;DHT22;1924;48.078;11.516;2024-03-23T11:00:59;8.50;99.90
3818;DHT22;1924;48.078;11.516;2024-03-23T11:03:33;8.50;99.90
3818;DHT22;1924;48.078;11.516;2024-03-23T11:06:02;8.60;99.90
3818;DHT22;1924;48.078;11.516;2024-03-23T11:08:35;8.60;99.90
3818;DHT22;1924;48.078;11.516;2024-03-23T11:11:12;8.60;99.90
3818;DHT22;1924;48.078;11.516;2024-03-23T11:13:38;8.60;99.90
3818;DHT22;1924;48.078;11.516;2024-03-23T11:16:14;8.70;99.90
3818;DHT22;1924;48.078;11.516;2024-03-23T11:18:40;8.70;99.90
3818;DHT22;1924;48.078;11.516;2024-03-23T11:21:07;8.70;99.90
3818;DHT22;1924;48.078;11.516;2024-03-23T11:23:33;8.70;99.90
3818;DHT22;1924;48.078;11.516;2024-03-23T11:26:00;8.60;99.90
3818;DHT22;1924;48.078;11.516;2024-03-23T11:28:26;8.60;99.90
3818;DHT22;1924;48.078;11.516;2024-03-23T11:30:53;8.70;99.90
3818;DHT22;1924;48.078;11.516;2024-03-23T11:33:20;8.90;99.90
3818;DHT22;1924;48.078;11.516;2024-03-23T11:35:46;8.90;99.90
3818;DHT22;1924;48.078;11.516;2024-03-23T11:38:13;8.80;99.90
3818;DHT22;1924;48.078;11.516;2024-03-23T11:40:41;9.00;99.90
3818;DHT22;1924;48.078;11.516;2024-03-23T11:43:08;8.80;99.90
3818;DHT22;1924;48.078;11.516;2024-03-23T11:45:37;8.80;99.90
3818;DHT22;1924;48.078;11.516;2024-03-23T11:48:05;8.70;99.90
3818;DHT22;1924;48.078;11.516;2024-03-23T11:50:37;8.70;99.90
3818;DHT22;1924;48.078;11.516;2024-03-23T11:53:11;8.60;99.90
3818;DHT22;1924;48.078;11.516;2024-03-23T11:55:40;8.70;99.90
3818;DHT22;1924;48.078;11.516;2024-03-23T11:58:05;8.80;99.90
3818;DHT22;1924;48.078;11.516;2024-03-23T12:00:33;8.80;99.90
3818;DHT22;1924;48.078;11.516;2024-03-23T12:03:00;8.90;99.90
3818;DHT22;1924;48.078;11.516;2024-03-23T12:05:27;9.10;99.90
3818;DHT22;1924;48.078;11.516;2024-03-23T12:07:54;9.00;99.90
3818;DHT22;1924;48.078;11.516;2024-03-23T12:10:21;9.10;99.90
3818;DHT22;1924;48.078;11.516;2024-03-23T12:12:59;9.20;99.90
3818;DHT22;1924;48.078;11.516;2024-03-23T12:15:26;9.30;99.90
3818;DHT22;1924;48.078;11.516;2024-03-23T12:17:58;9.10;99.90
3818;DHT22;1924;48.078;11.516;2024-03-23T12:20:32;9.10;99.90
3818;DHT22;1924;48.078;11.516;2024-03-23T12:23:10;9.10;99.90
3818;DHT22;1924;48.078;11.516;2024-03-23T12:25:37;9.20;99.90
3818;DHT22;1924;48.078;11.516;2024-03-23T12:28:04;9.10;99.90
3818;DHT22;1924;48.078;11.516;2024-03-23T12:30:32;9.10;99.90
3818;DHT22;1924;48.078;11.516;2024-03-23T12:32:58;9.20;99.90
3818;DHT22;1924;48.078;11.516;2024-03-23T12:35:25;9.10;99.90
3818;DHT22;1924;48.078;11.516;2024-03-23T12:37:51;9.10;99.90
3818;DHT22;1924;48.078;11.516;2024-03-23T12:40:19;9.10;99.90
3818;DHT22;1924;48.078;11.516;2024-03-23T12:42:45;9.30;99.90
3818;DHT22;1924;48.078;11.516;2024-03-23T12:45:12;9.40;99.90
3818;DHT22;1924;48.078;11.516;2024-03-23T12:47:38;9.30;99.90
3818;DHT22;1924;48.078;11.516;2024-03-23T12:50:05;9.40;99.90
3818;DHT22;1924;48.078;11.516;2024-03-23T12:52:31;9.30;99.90
3818;DHT22;1924;48.078;11.516;2024-03-23T12:54:58;9.40;99.90
3818;DHT22;1924;48.078;11.516;2024-03-23T12:57:25;9.40;99.90
3818;DHT22;1924;48.078;11.516;2024-03-23T12:59:53;9.50;99.90
3818;DHT22;1924;48.078;11.516;2024-03-23T13:02:20;9.50;99.90
3818;DHT22;1924;48.078;11.516;2024-03-23T13:04:49;9.70;99.90
3818;DHT22;1924;48.078;11.516;2024-03-23T13:07:15;9.70;99.90
3818;DHT22;1924;48.078;11.516;2024-03-23T13:09:42;9.60;99.90
3818;DHT22;1924;48.078;11.516;2024-03-23T13:12:08;9.40;99.90
3818;DHT22;1924;48.078;11.516;2024-03-23T13:14:36;9.50;99.90
3818;DHT22;1924;48.078;11.516;2024-03-23T13:17:02;9.50;99.90
3818;DHT22;1924;48.078;11.516;2024-03-23T13:19:29;9.40;99.90
3818;DHT22;1924;48.078;11.516;2024-03-23T13:21:56;9.40;99.90
3818;DHT22;1924;48.078;11.516;2024-03-23T13:24:24;9.50;99.90
3818;DHT22;1924;48.078;11.516;2024-03-23T13:26:50;9.20;99.90
3818;DHT22;1924;48.078;11.516;2024-03-23T13:29:18;9.00;99.90
3818;DHT22;1924;48.078;11.516;2024-03-23T13:31:45;9.10;99.90
3818;DHT22;1924;48.078;11.516;2024-03-23T13:34:12;9.10;99.90
3818;DHT22;1924;48.078;11.516;2024-03-23T13:36:40;9.10;99.90
3818;DHT22;1924;48.078;11.516;2024-03-23T13:39:07;9.10;99.90
3818;DHT22;1924;48.078;11.516;2024-03-23T13:41:37;9.10;99.90
3818;DHT22;1924;48.078;11.516;2024-03-23T13:44:04;9.00;99.90
3818;DHT22;1924;48.078;11.516;2024-03-23T13:46:30;9.10;99.90
3818;DHT22;1924;48.078;11.516;2024-03-23T13:48:58;9.30;99.90
3818;DHT22;1924;48.078;11.516;2024-03-23T13:51:24;9.40;99.90
3818;DHT22;1924;48.078;11.516;2024-03-23T13:53:52;9.30;99.90
3818;DHT22;1924;48.078;11.516;2024-03-23T13:56:18;9.30;99.90
3818;DHT22;1924;48.078;11.516;2024-03-23T13:58:45;9.20;99.90
3818;DHT22;1924;48.078;11.516;2024-03-23T14:01:13;9.20;99.90
3818;DHT22;1924;48.078;11.516;2024-03-23T14:03:40;9.00;99.90
3818;DHT22;1924;48.078;11.516;2024-03-23T14:06:07;8.90;99.90
3818;DHT22;1924;48.078;11.516;2024-03-23T14:08:34;8.60;99.90
3818;DHT22;1924;48.078;11.516;2024-03-23T14:11:02;8.30;99.90
3818;DHT22;1924;48.078;11.516;2024-03-23T14:13:30;8.10;99.90
3818;DHT22;1924;48.078;11.516;2024-03-23T14:15:57;7.80;99.90
3818;DHT22;1924;48.078;11.516;2024-03-23T14:18:24;7.60;99.90
3818;DHT22;1924;48.078;11.516;2024-03-23T14:20:50;7.50;99.90
3818;DHT22;1924;48.078;11.516;2024-03-23T14:23:18;7.50;99.90
3818;DHT22;1924;48.078;11.516;2024-03-23T14:25:44;7.40;99.90
3818;DHT22;1924;48.078;11.516;2024-03-23T14:28:11;7.50;99.90
3818;DHT22;1924;48.078;11.516;2024-03-23T14:30:40;7.40;99.90
3818;DHT22;1924;48.078;11.516;2024-03-23T14:33:07;7.50;99.90
3818;DHT22;1924;48.078;11.516;2024-03-23T14:35:33;7.60;99.90
3818;DHT22;1924;48.078;11.516;2024-03-23T14:37:59;7.50;99.90
3818;DHT22;1924;48.078;11.516;2024-03-23T14:40:27;7.50;99.90
3818;DHT22;1924;48.078;11.516;2024-03-23T14:42:54;7.30;99.90
3818;DHT22;1924;48.078;11.516;2024-03-23T14:45:20;7.30;99.90
3818;DHT22;1924;48.078;11.516;2024-03-23T14:47:47;7.30;99.90
3818;DHT22;1924;48.078;11.516;2024-03-23T14:50:13;7.30;99.90
3818;DHT22;1924;48.078;11.516;2024-03-23T14:52:41;7.30;99.90
3818;DHT22;1924;48.078;11.516;2024-03-23T14:55:07;7.40;99.90
3818;DHT22;1924;48.078;11.516;2024-03-23T14:57:36;7.50;99.90
3818;DHT22;1924;48.078;11.516;2024-03-23T15:00:03;7.50;99.90
3818;DHT22;1924;48.078;11.516;2024-03-23T15:02:31;7.40;99.90
3818;DHT22;1924;48.078;11.516;2024-03-23T15:04:58;7.20;99.90
3818;DHT22;1924;48.078;11.516;2024-03-23T15:07:24;7.00;99.90
3818;DHT22;1924;48.078;11.516;2024-03-23T15:09:50;6.90;99.90
3818;DHT22;1924;48.078;11.516;2024-03-23T15:12:19;6.90;99.90
3818;DHT22;1924;48.078;11.516;2024-03-23T15:14:46;6.40;99.90
3818;DHT22;1924;48.078;11.516;2024-03-23T15:17:13;6.50;99.90
3818;DHT22;1924;48.078;11.516;2024-03-23T15:19:38;6.70;99.90
3818;DHT22;1924;48.078;11.516;2024-03-23T15:22:05;6.60;99.90
3818;DHT22;1924;48.078;11.516;2024-03-23T15:24:31;6.60;99.90
3818;DHT22;1924;48.078;11.516;2024-03-23T15:26:59;6.70;99.90
3818;DHT22;1924;48.078;11.516;2024-03-23T15:29:25;6.80;99.90
3818;DHT22;1924;48.078;11.516;2024-03-23T15:31:53;6.90;99.90
3818;DHT22;1924;48.078;11.516;2024-03-23T15:34:19;7.10;99.90
3818;DHT22;1924;48.078;11.516;2024-03-23T15:36:47;7.30;99.90
3818;DHT22;1924;48.078;11.516;2024-03-23T15:39:13;7.40;99.90
3818;DHT22;1924;48.078;11.516;2024-03-23T15:41:40;7.50;99.90
3818;DHT22;1924;48.078;11.516;2024-03-23T15:44:06;7.50;99.90
3818;DHT22;1924;48.078;11.516;2024-03-23T15:46:33;7.50;99.90
3818;DHT22;1924;48.078;11.516;2024-03-23T15:49:01;7.20;99.90
3818;DHT22;1924;48.078;11.516;2024-03-23T15:51:28;7.30;99.90
3818;DHT22;1924;48.078;11.516;2024-03-23T15:53:58;7.50;99.90
3818;DHT22;1924;48.078;11.516;2024-03-23T15:56:25;7.50;99.90
3818;DHT22;1924;48.078;11.516;2024-03-23T15:58:51;7.60;99.90
3818;DHT22;1924;48.078;11.516;2024-03-23T16:01:17;7.60;99.90
3818;DHT22;1924;48.078;11.516;2024-03-23T16:03:43;7.50;99.90
3818;DHT22;1924;48.078;11.516;2024-03-23T16:06:11;7.40;99.90
3818;DHT22;1924;48.078;11.516;2024-03-23T16:08:37;7.40;99.90
3818;DHT22;1924;48.078;11.516;2024-03-23T16:11:05;7.20;99.90
3818;DHT22;1924;48.078;11.516;2024-03-23T16:13:32;7.50;99.90
3818;DHT22;1924;48.078;11.516;2024-03-23T16:15:59;7.50;99.90
3818;DHT22;1924;48.078;11.516;2024-03-23T16:18:26;7.60;99.90
3818;DHT22;1924;48.078;11.516;2024-03-23T16:20:54;7.70;99.90
3818;DHT22;1924;48.078;11.516;2024-03-23T16:23:21;7.80;99.90
3818;DHT22;1924;48.078;11.516;2024-03-23T16:25:48;7.80;99.90
3818;DHT22;1924;48.078;11.516;2024-03-23T16:28:24;7.80;99.90
3818;DHT22;1924;48.078;11.516;2024-03-23T16:30:58;7.60;99.90
3818;DHT22;1924;48.078;11.516;2024-03-23T16:33:24;7.60;99.90
3818;DHT22;1924;48.078;11.516;2024-03-23T16:35:58;7.40;99.90
3818;DHT22;1924;48.078;11.516;2024-03-23T16:38:25;7.30;99.90
3818;DHT22;1924;48.078;11.516;2024-03-23T16:40:57;7.40;99.90
3818;DHT22;1924;48.078;11.516;2024-03-23T16:43:23;7.50;99.90
3818;DHT22;1924;48.078;11.516;2024-03-23T16:45:54;7.50;99.90
3818;DHT22;1924;48.078;11.516;2024-03-23T16:48:20;7.50;99.90
3818;DHT22;1924;48.078;11.516;2024-03-23T16:50:47;7.50;99.90
3818;DHT22;1924;48.078;11.516;2024-03-23T16:53:13;7.40;99.90
3818;DHT22;1924;48.078;11.516;2024-03-23T16:55:41;7.10;99.90
3818;DHT22;1924;48.078;11.516;2024-03-23T16:58:07;7.00;99.90
3818;DHT22;1924;48.078;11.516;2024-03-23T17:00:34;7.00;99.90
3818;DHT22;1924;48.078;11.516;2024-03-23T17:03:01;6.90;99.90
3818;DHT22;1924;48.078;11.516;2024-03-23T17:05:28;7.00;99.90
3818;DHT22;1924;48.078;11.516;2024-03-23T17:07:53;7.20;99.90
3818;DHT22;1924;48.078;11.516;2024-03-23T17:10:22;7.10;99.90
3818;DHT22;1924;48.078;11.516;2024-03-23T17:12:49;6.90;99.90
3818;DHT22;1924;48.078;11.516;2024-03-23T17:15:16;6.70;99.90
3818;DHT22;1924;48.078;11.516;2024-03-23T17:17:46;6.70;99.90
3818;DHT22;1924;48.078;11.516;2024-03-23T17:20:13;6.90;99.90
3818;DHT22;1924;48.078;11.516;2024-03-23T17:22:39;7.00;99.90
3818;DHT22;1924;48.078;11.516;2024-03-23T17:25:06;7.10;99.90
3818;DHT22;1924;48.078;11.516;2024-03-23T17:27:33;7.20;99.90
3818;DHT22;1924;48.078;11.516;2024-03-23T17:30:01;6.80;99.90
3818;DHT22;1924;48.078;11.516;2024-03-23T17:32:27;6.50;99.90
3818;DHT22;1924;48.078;11.516;2024-03-23T17:34:54;6.40;99.90
3818;DHT22;1924;48.078;11.516;2024-03-23T17:37:20;6.20;99.90
3818;DHT22;1924;48.078;11.516;2024-03-23T17:39:48;5.70;99.90
3818;DHT22;1924;48.078;11.516;2024-03-23T17:42:14;5.40;99.90
3818;DHT22;1924;48.078;11.516;2024-03-23T17:44:41;5.30;99.90
3818;DHT22;1924;48.078;11.516;2024-03-23T17:47:08;5.40;99.90
3818;DHT22;1924;48.078;11.516;2024-03-23T17:49:35;5.50;99.90
3818;DHT22;1924;48.078;11.516;2024-03-23T17:52:09;5.60;99.90
3818;DHT22;1924;48.078;11.516;2024-03-23T17:54:39;5.60;99.90
3818;DHT22;1924;48.078;11.516;2024-03-23T17:57:05;5.60;99.90
3818;DHT22;1924;48.078;11.516;2024-03-23T17:59:32;5.60;99.90
3818;DHT22;1924;48.078;11.516;2024-03-23T18:01:58;5.60;99.90
3818;DHT22;1924;48.078;11.516;2024-03-23T18:04:26;5.50;99.90
3818;DHT22;1924;48.078;11.516;2024-03-23T18:06:52;5.60;99.90
3818;DHT22;1924;48.078;11.516;2024-03-23T18:09:19;5.60;99.90
3818;DHT22;1924;48.078;11.516;2024-03-23T18:11:45;5.80;99.90
3818;DHT22;1924;48.078;11.516;2024-03-23T18:14:12;5.60;99.90
3818;DHT22;1924;48.078;11.516;2024-03-23T18:16:38;5.90;99.90
3818;DHT22;1924;48.078;11.516;2024-03-23T18:19:05;6.00;99.90
3818;DHT22;1924;48.078;11.516;2024-03-23T18:21:32;5.80;99.90
3818;DHT22;1924;48.078;11.516;2024-03-23T18:23:59;5.70;99.90
3818;DHT22;1924;48.078;11.516;2024-03-23T18:26:24;5.50;99.90
3818;DHT22;1924;48.078;11.516;2024-03-23T18:28:51;5.20;99.90
3818;DHT22;1924;48.078;11.516;2024-03-23T18:31:18;5.10;99.90
3818;DHT22;1924;48.078;11.516;2024-03-23T18:33:46;5.20;99.90
3818;DHT22;1924;48.078;11.516;2024-03-23T18:36:12;5.10;99.90
3818;DHT22;1924;48.078;11.516;2024-03-23T18:38:40;5.00;99.90
3818;DHT22;1924;48.078;11.516;2024-03-23T18:41:06;5.10;99.90
3818;DHT22;1924;48.078;11.516;2024-03-23T18:43:33;5.00;99.90
3818;DHT22;1924;48.078;11.516;2024-03-23T18:46:01;5.10;99.90
3818;DHT22;1924;48.078;11.516;2024-03-23T18:48:28;4.90;99.90
3818;DHT22;1924;48.078;11.516;2024-03-23T18:50:55;5.10;99.90
3818;DHT22;1924;48.078;11.516;2024-03-23T18:53:21;5.10;99.90
3818;DHT22;1924;48.078;11.516;2024-03-23T18:55:56;5.40;99.90
3818;DHT22;1924;48.078;11.516;2024-03-23T18:58:23;5.60;99.90
3818;DHT22;1924;48.078;11.516;2024-03-23T19:00:55;5.50;99.90
3818;DHT22;1924;48.078;11.516;2024-03-23T19:03:22;5.50;99.90
3818;DHT22;1924;48.078;11.516;2024-03-23T19:05:52;5.60;99.90
3818;DHT22;1924;48.078;11.516;2024-03-23T19:08:19;5.70;99.90
3818;DHT22;1924;48.078;11.516;2024-03-23T19:10:51;5.60;99.90
3818;DHT22;1924;48.078;11.516;2024-03-23T19:13:19;5.70;99.90
3818;DHT22;1924;48.078;11.516;2024-03-23T19:15:45;5.80;99.90
3818;DHT22;1924;48.078;11.516;2024-03-23T19:18:11;5.70;99.90
3818;DHT22;1924;48.078;11.516;2024-03-23T19:20:37;5.50;99.90
3818;DHT22;1924;48.078;11.516;2024-03-23T19:23:04;5.30;99.90
3818;DHT22;1924;48.078;11.516;2024-03-23T19:25:30;5.30;99.90
3818;DHT22;1924;48.078;11.516;2024-03-23T19:27:57;5.40;99.90
3818;DHT22;1924;48.078;11.516;2024-03-23T19:30:24;5.60;99.90
3818;DHT22;1924;48.078;11.516;2024-03-23T19:32:51;5.60;99.90
3818;DHT22;1924;48.078;11.516;2024-03-23T19:35:18;5.60;99.90
3818;DHT22;1924;48.078;11.516;2024-03-23T19:37:45;5.70;99.90
3818;DHT22;1924;48.078;11.516;2024-03-23T19:40:11;5.60;99.90
3818;DHT22;1924;48.078;11.516;2024-03-23T19:42:39;5.70;99.90
3818;DHT22;1924;48.078;11.516;2024-03-23T19:45:05;5.80;99.90
3818;DHT22;1924;48.078;11.516;2024-03-23T19:47:33;5.70;99.90
3818;DHT22;1924;48.078;11.516;2024-03-23T19:49:59;5.70;99.90
3818;DHT22;1924;48.078;11.516;2024-03-23T19:52:26;5.60;99.90
3818;DHT22;1924;48.078;11.516;2024-03-23T19:54:52;5.70;99.90
3818;DHT22;1924;48.078;11.516;2024-03-23T19:57:19;5.60;99.90
3818;DHT22;1924;48.078;11.516;2024-03-23T19:59:44;5.60;99.90
3818;DHT22;1924;48.078;11.516;2024-03-23T20:02:11;5.70;99.90
3818;DHT22;1924;48.078;11.516;2024-03-23T20:04:38;5.60;99.90
3818;DHT22;1924;48.078;11.516;2024-03-23T20:07:05;5.70;99.90
3818;DHT22;1924;48.078;11.516;2024-03-23T20:09:31;5.50;99.90
3818;DHT22;1924;48.078;11.516;2024-03-23T20:11:57;5.50;99.90
3818;DHT22;1924;48.078;11.516;2024-03-23T20:14:24;5.60;99.90
3818;DHT22;1924;48.078;11.516;2024-03-23T20:16:51;5.60;99.90
3818;DHT22;1924;48.078;11.516;2024-03-23T20:19:16;5.80;99.90
3818;DHT22;1924;48.078;11.516;2024-03-23T20:21:45;5.80;99.90
3818;DHT22;1924;48.078;11.516;2024-03-23T20:24:11;5.80;99.90
3818;DHT22;1924;48.078;11.516;2024-03-23T20:26:37;5.70;99.90
3818;DHT22;1924;48.078;11.516;2024-03-23T20:29:03;5.70;99.90
3818;DHT22;1924;48.078;11.516;2024-03-23T20:31:30;5.60;99.90
3818;DHT22;1924;48.078;11.516;2024-03-23T20:33:56;5.50;99.90
3818;DHT22;1924;48.078;11.516;2024-03-23T20:36:23;5.40;99.90
3818;DHT22;1924;48.078;11.516;2024-03-23T20:38:51;5.50;99.90
3818;DHT22;1924;48.078;11.516;2024-03-23T20:41:17;5.40;99.90
3818;DHT22;1924;48.078;11.516;2024-03-23T20:43:43;5.40;99.90
3818;DHT22;1924;48.078;11.516;2024-03-23T20:46:12;5.40;99.90
3818;DHT22;1924;48.078;11.516;2024-03-23T20:48:38;5.40;99.90
3818;DHT22;1924;48.078;11.516;2024-03-23T20:51:07;5.50;99.90
3818;DHT22;1924;48.078;11.516;2024-03-23T20:53:34;5.50;99.90
3818;DHT22;1924;48.078;11.516;2024-03-23T20:56:03;5.50;99.90
3818;DHT22;1924;48.078;11.516;2024-03-23T20:58:30;5.60;99.90